sensor_id;sensor_type;location;lat;lon;timestamp;pressure;altitude;pressure_sealevel;temperature
21336;BMP180;69435;52.670;13.544;2024-02-23T00:00:39;97785.00;;;13.60
21336;BMP180;69435;52.670;13.544;2024-02-23T00:03:25;97806.00;;;13.70
21336;BMP180;69435;52.670;13.544;2024-02-23T00:06:11;97808.00;;;13.60
21336;BMP180;69435;52.670;13.544;2024-02-23T00:08:58;97789.00;;;13.60
21336;BMP180;69435;52.670;13.544;2024-02-23T00:11:44;97765.00;;;13.70
21336;BMP180;69435;52.670;13.544;2024-02-23T00:14:31;97788.00;;;13.70
21336;BMP180;69435;52.670;13.544;2024-02-23T00:17:17;97799.00;;;13.60
21336;BMP180;69435;52.670;13.544;2024-02-23T00:20:03;97790.00;;;13.70
21336;BMP180;69435;52.670;13.544;2024-02-23T00:22:49;97793.00;;;13.70
21336;BMP180;69435;52.670;13.544;2024-02-23T00:25:35;97789.00;;;13.60
21336;BMP180;69435;52.670;13.544;2024-02-23T00:28:22;97790.00;;;13.70
21336;BMP180;69435;52.670;13.544;2024-02-23T00:31:08;97792.00;;;13.70
21336;BMP180;69435;52.670;13.544;2024-02-23T00:33:54;97793.00;;;13.70
21336;BMP180;69435;52.670;13.544;2024-02-23T00:36:41;97784.00;;;13.80
21336;BMP180;69435;52.670;13.544;2024-02-23T00:39:27;97782.00;;;13.80
21336;BMP180;69435;52.670;13.544;2024-02-23T00:42:13;97778.00;;;13.80
21336;BMP180;69435;52.670;13.544;2024-02-23T00:44:59;97780.00;;;13.80
21336;BMP180;69435;52.670;13.544;2024-02-23T00:47:45;97790.00;;;13.80
21336;BMP180;69435;52.670;13.544;2024-02-23T00:50:34;97784.00;;;13.70
21336;BMP180;69435;52.670;13.544;2024-02-23T00:53:21;97783.00;;;13.50
21336;BMP180;69435;52.670;13.544;2024-02-23T00:56:08;97770.00;;;13.70
21336;BMP180;69435;52.670;13.544;2024-02-23T00:58:54;97791.00;;;13.80
21336;BMP180;69435;52.670;13.544;2024-02-23T01:01:41;97776.00;;;13.70
21336;BMP180;69435;52.670;13.544;2024-02-23T01:04:27;97792.00;;;13.70
21336;BMP180;69435;52.670;13.544;2024-02-23T01:07:13;97794.00;;;13.70
21336;BMP180;69435;52.670;13.544;2024-02-23T01:09:59;97797.00;;;13.70
21336;BMP180;69435;52.670;13.544;2024-02-23T01:12:45;97783.00;;;13.80
21336;BMP180;69435;52.670;13.544;2024-02-23T01:15:31;97815.00;;;13.70
21336;BMP180;69435;52.670;13.544;2024-02-23T01:18:17;97801.00;;;13.80
21336;BMP180;69435;52.670;13.544;2024-02-23T01:21:03;97803.00;;;13.70
21336;BMP180;69435;52.670;13.544;2024-02-23T01:23:49;97831.00;;;13.70
21336;BMP180;69435;52.670;13.544;2024-02-23T01:26:35;97831.00;;;13.70
21336;BMP180;69435;52.670;13.544;2024-02-23T01:29:22;97835.00;;;13.80
21336;BMP180;69435;52.670;13.544;2024-02-23T01:32:08;97842.00;;;13.80
21336;BMP180;69435;52.670;13.544;2024-02-23T01:34:54;97849.00;;;13.80
21336;BMP180;69435;52.670;13.544;2024-02-23T01:37:40;97850.00;;;13.70
21336;BMP180;69435;52.670;13.544;2024-02-23T01:40:26;97851.00;;;13.80
21336;BMP180;69435;52.670;13.544;2024-02-23T01:43:12;97852.00;;;13.70
21336;BMP180;69435;52.670;13.544;2024-02-23T01:45:58;97863.00;;;13.80
21336;BMP180;69435;52.670;13.544;2024-02-23T01:48:45;97851.00;;;13.80
21336;BMP180;69435;52.670;13.544;2024-02-23T01:51:31;97881.00;;;13.70
21336;BMP180;69435;52.670;13.544;2024-02-23T01:54:18;97888.00;;;13.80
21336;BMP180;69435;52.670;13.544;2024-02-23T01:57:04;97887.00;;;13.90
21336;BMP180;69435;52.670;13.544;2024-02-23T01:59:50;97906.00;;;13.90
21336;BMP180;69435;52.670;13.544;2024-02-23T02:02:38;97925.00;;;13.90
21336;BMP180;69435;52.670;13.544;2024-02-23T02:05:25;97920.00;;;14.00
21336;BMP180;69435;52.670;13.544;2024-02-23T02:08:11;97924.00;;;13.90
21336;BMP180;69435;52.670;13.544;2024-02-23T02:10:57;97929.00;;;14.00
21336;BMP180;69435;52.670;13.544;2024-02-23T02:13:43;97963.00;;;14.10
21336;BMP180;69435;52.670;13.544;2024-02-23T02:16:29;97962.00;;;14.10
21336;BMP180;69435;52.670;13.544;2024-02-23T02:19:15;97980.00;;;14.20
21336;BMP180;69435;52.670;13.544;2024-02-23T02:22:01;97993.00;;;14.10
21336;BMP180;69435;52.670;13.544;2024-02-23T02:24:47;97984.00;;;14.10
21336;BMP180;69435;52.670;13.544;2024-02-23T02:27:33;98006.00;;;14.10
21336;BMP180;69435;52.670;13.544;2024-02-23T02:30:20;97980.00;;;14.10
21336;BMP180;69435;52.670;13.544;2024-02-23T02:33:06;98012.00;;;14.20
21336;BMP180;69435;52.670;13.544;2024-02-23T02:35:52;98042.00;;;14.30
21336;BMP180;69435;52.670;13.544;2024-02-23T02:38:38;98040.00;;;14.20
21336;BMP180;69435;52.670;13.544;2024-02-23T02:41:28;98043.00;;;14.20
21336;BMP180;69435;52.670;13.544;2024-02-23T02:44:16;98072.00;;;14.20
21336;BMP180;69435;52.670;13.544;2024-02-23T02:47:02;98041.00;;;14.10
21336;BMP180;69435;52.670;13.544;2024-02-23T02:49:49;98078.00;;;14.00
21336;BMP180;69435;52.670;13.544;2024-02-23T02:52:35;98085.00;;;14.00
21336;BMP180;69435;52.670;13.544;2024-02-23T02:55:21;98076.00;;;13.90
21336;BMP180;69435;52.670;13.544;2024-02-23T02:58:07;98071.00;;;13.80
21336;BMP180;69435;52.670;13.544;2024-02-23T03:00:53;98095.00;;;13.70
21336;BMP180;69435;52.670;13.544;2024-02-23T03:03:39;98090.00;;;13.70
21336;BMP180;69435;52.670;13.544;2024-02-23T03:06:26;98128.00;;;13.60
21336;BMP180;69435;52.670;13.544;2024-02-23T03:09:12;98135.00;;;13.50
21336;BMP180;69435;52.670;13.544;2024-02-23T03:11:58;98133.00;;;13.50
21336;BMP180;69435;52.670;13.544;2024-02-23T03:14:44;98144.00;;;13.50
21336;BMP180;69435;52.670;13.544;2024-02-23T03:17:30;98158.00;;;13.40
21336;BMP180;69435;52.670;13.544;2024-02-23T03:20:16;98137.00;;;13.40
21336;BMP180;69435;52.670;13.544;2024-02-23T03:23:02;98179.00;;;13.30
21336;BMP180;69435;52.670;13.544;2024-02-23T03:25:49;98160.00;;;13.30
21336;BMP180;69435;52.670;13.544;2024-02-23T03:28:35;98171.00;;;13.30
21336;BMP180;69435;52.670;13.544;2024-02-23T03:31:21;98167.00;;;13.20
21336;BMP180;69435;52.670;13.544;2024-02-23T03:34:07;98197.00;;;13.10
21336;BMP180;69435;52.670;13.544;2024-02-23T03:36:53;98185.00;;;13.10
21336;BMP180;69435;52.670;13.544;2024-02-23T03:39:39;98188.00;;;13.00
21336;BMP180;69435;52.670;13.544;2024-02-23T03:42:26;98198.00;;;12.90
21336;BMP180;69435;52.670;13.544;2024-02-23T03:45:12;98198.00;;;12.90
21336;BMP180;69435;52.670;13.544;2024-02-23T03:47:59;98212.00;;;12.80
21336;BMP180;69435;52.670;13.544;2024-02-23T03:50:46;98214.00;;;12.80
21336;BMP180;69435;52.670;13.544;2024-02-23T03:53:32;98224.00;;;12.80
21336;BMP180;69435;52.670;13.544;2024-02-23T03:56:18;98231.00;;;12.70
21336;BMP180;69435;52.670;13.544;2024-02-23T03:59:04;98220.00;;;12.70
21336;BMP180;69435;52.670;13.544;2024-02-23T04:01:50;98229.00;;;12.60
21336;BMP180;69435;52.670;13.544;2024-02-23T04:04:36;98259.00;;;12.60
21336;BMP180;69435;52.670;13.544;2024-02-23T04:07:22;98259.00;;;12.60
21336;BMP180;69435;52.670;13.544;2024-02-23T04:10:09;98275.00;;;12.50
21336;BMP180;69435;52.670;13.544;2024-02-23T04:12:55;98281.00;;;12.50
21336;BMP180;69435;52.670;13.544;2024-02-23T04:15:41;98273.00;;;12.50
21336;BMP180;69435;52.670;13.544;2024-02-23T04:18:27;98282.00;;;12.50
21336;BMP180;69435;52.670;13.544;2024-02-23T04:21:13;98286.00;;;12.50
21336;BMP180;69435;52.670;13.544;2024-02-23T04:24:01;98280.00;;;12.50
21336;BMP180;69435;52.670;13.544;2024-02-23T04:26:47;98299.00;;;12.50
21336;BMP180;69435;52.670;13.544;2024-02-23T04:29:33;98307.00;;;12.50
21336;BMP180;69435;52.670;13.544;2024-02-23T04:32:19;98297.00;;;12.40
21336;BMP180;69435;52.670;13.544;2024-02-23T04:35:06;98308.00;;;12.50
21336;BMP180;69435;52.670;13.544;2024-02-23T04:37:52;98320.00;;;12.40
21336;BMP180;69435;52.670;13.544;2024-02-23T04:40:38;98323.00;;;12.30
21336;BMP180;69435;52.670;13.544;2024-02-23T04:43:24;98341.00;;;12.30
21336;BMP180;69435;52.670;13.544;2024-02-23T04:46:11;98336.00;;;12.20
21336;BMP180;69435;52.670;13.544;2024-02-23T04:48:58;98340.00;;;12.20
21336;BMP180;69435;52.670;13.544;2024-02-23T04:51:44;98344.00;;;12.20
21336;BMP180;69435;52.670;13.544;2024-02-23T04:54:30;98378.00;;;12.30
21336;BMP180;69435;52.670;13.544;2024-02-23T04:57:16;98382.00;;;12.30
21336;BMP180;69435;52.670;13.544;2024-02-23T05:00:02;98398.00;;;12.30
21336;BMP180;69435;52.670;13.544;2024-02-23T05:02:49;98396.00;;;12.30
21336;BMP180;69435;52.670;13.544;2024-02-23T05:05:35;98412.00;;;12.10
21336;BMP180;69435;52.670;13.544;2024-02-23T05:08:21;98414.00;;;12.00
21336;BMP180;69435;52.670;13.544;2024-02-23T05:11:10;98420.00;;;11.90
21336;BMP180;69435;52.670;13.544;2024-02-23T05:13:56;98444.00;;;11.90
21336;BMP180;69435;52.670;13.544;2024-02-23T05:16:42;98449.00;;;11.90
21336;BMP180;69435;52.670;13.544;2024-02-23T05:19:28;98474.00;;;11.90
21336;BMP180;69435;52.670;13.544;2024-02-23T05:22:14;98453.00;;;11.80
21336;BMP180;69435;52.670;13.544;2024-02-23T05:25:00;98457.00;;;11.90
21336;BMP180;69435;52.670;13.544;2024-02-23T05:27:46;98479.00;;;11.90
21336;BMP180;69435;52.670;13.544;2024-02-23T05:30:32;98467.00;;;11.80
21336;BMP180;69435;52.670;13.544;2024-02-23T05:33:18;98476.00;;;11.70
21336;BMP180;69435;52.670;13.544;2024-02-23T05:36:06;98489.00;;;11.60
21336;BMP180;69435;52.670;13.544;2024-02-23T05:38:53;98508.00;;;11.50
21336;BMP180;69435;52.670;13.544;2024-02-23T05:41:39;98505.00;;;11.40
21336;BMP180;69435;52.670;13.544;2024-02-23T05:44:25;98497.00;;;11.30
21336;BMP180;69435;52.670;13.544;2024-02-23T05:47:11;98544.00;;;11.30
21336;BMP180;69435;52.670;13.544;2024-02-23T05:49:59;98537.00;;;11.00
21336;BMP180;69435;52.670;13.544;2024-02-23T05:52:45;98540.00;;;11.20
21336;BMP180;69435;52.670;13.544;2024-02-23T05:55:31;98537.00;;;11.20
21336;BMP180;69435;52.670;13.544;2024-02-23T05:58:17;98560.00;;;11.20
21336;BMP180;69435;52.670;13.544;2024-02-23T06:01:03;98509.00;;;11.20
21336;BMP180;69435;52.670;13.544;2024-02-23T06:03:50;98570.00;;;11.10
21336;BMP180;69435;52.670;13.544;2024-02-23T06:06:36;98575.00;;;11.10
21336;BMP180;69435;52.670;13.544;2024-02-23T06:09:23;98589.00;;;11.10
21336;BMP180;69435;52.670;13.544;2024-02-23T06:12:09;98603.00;;;11.10
21336;BMP180;69435;52.670;13.544;2024-02-23T06:14:55;98597.00;;;11.10
21336;BMP180;69435;52.670;13.544;2024-02-23T06:17:42;98614.00;;;11.10
21336;BMP180;69435;52.670;13.544;2024-02-23T06:20:28;98634.00;;;11.10
21336;BMP180;69435;52.670;13.544;2024-02-23T06:23:16;98639.00;;;11.10
21336;BMP180;69435;52.670;13.544;2024-02-23T06:26:03;98648.00;;;11.10
21336;BMP180;69435;52.670;13.544;2024-02-23T06:28:49;98659.00;;;11.10
21336;BMP180;69435;52.670;13.544;2024-02-23T06:31:35;98664.00;;;11.00
21336;BMP180;69435;52.670;13.544;2024-02-23T06:34:21;98681.00;;;11.00
21336;BMP180;69435;52.670;13.544;2024-02-23T06:37:07;98693.00;;;11.00
21336;BMP180;69435;52.670;13.544;2024-02-23T06:39:54;98694.00;;;11.00
21336;BMP180;69435;52.670;13.544;2024-02-23T06:42:40;98675.00;;;10.90
21336;BMP180;69435;52.670;13.544;2024-02-23T06:45:26;98694.00;;;10.90
21336;BMP180;69435;52.670;13.544;2024-02-23T06:48:12;98700.00;;;10.80
21336;BMP180;69435;52.670;13.544;2024-02-23T06:50:58;98705.00;;;10.90
21336;BMP180;69435;52.670;13.544;2024-02-23T06:53:44;98733.00;;;10.90
21336;BMP180;69435;52.670;13.544;2024-02-23T06:56:30;98731.00;;;10.90
21336;BMP180;69435;52.670;13.544;2024-02-23T06:59:16;98729.00;;;11.00
21336;BMP180;69435;52.670;13.544;2024-02-23T07:02:02;98736.00;;;11.00
21336;BMP180;69435;52.670;13.544;2024-02-23T07:04:50;98733.00;;;11.00
21336;BMP180;69435;52.670;13.544;2024-02-23T07:07:36;98761.00;;;11.10
21336;BMP180;69435;52.670;13.544;2024-02-23T07:10:22;98756.00;;;11.10
21336;BMP180;69435;52.670;13.544;2024-02-23T07:13:10;98747.00;;;11.20
21336;BMP180;69435;52.670;13.544;2024-02-23T07:15:56;98752.00;;;11.20
21336;BMP180;69435;52.670;13.544;2024-02-23T07:18:44;98757.00;;;11.40
21336;BMP180;69435;52.670;13.544;2024-02-23T07:21:30;98765.00;;;11.50
21336;BMP180;69435;52.670;13.544;2024-02-23T07:24:16;98780.00;;;11.60
21336;BMP180;69435;52.670;13.544;2024-02-23T07:27:03;98775.00;;;11.80
21336;BMP180;69435;52.670;13.544;2024-02-23T07:29:49;98775.00;;;11.90
21336;BMP180;69435;52.670;13.544;2024-02-23T07:32:35;98753.00;;;12.00
21336;BMP180;69435;52.670;13.544;2024-02-23T07:35:22;98773.00;;;12.10
21336;BMP180;69435;52.670;13.544;2024-02-23T07:38:08;98788.00;;;12.30
21336;BMP180;69435;52.670;13.544;2024-02-23T07:40:54;98786.00;;;12.40
21336;BMP180;69435;52.670;13.544;2024-02-23T07:43:40;98800.00;;;12.40
21336;BMP180;69435;52.670;13.544;2024-02-23T07:46:27;98807.00;;;12.30
21336;BMP180;69435;52.670;13.544;2024-02-23T07:49:13;98799.00;;;12.20
21336;BMP180;69435;52.670;13.544;2024-02-23T07:51:59;98781.00;;;12.00
21336;BMP180;69435;52.670;13.544;2024-02-23T07:54:45;98793.00;;;11.90
21336;BMP180;69435;52.670;13.544;2024-02-23T07:57:31;98803.00;;;11.90
21336;BMP180;69435;52.670;13.544;2024-02-23T08:00:18;98815.00;;;11.90
21336;BMP180;69435;52.670;13.544;2024-02-23T08:03:04;98828.00;;;11.90
21336;BMP180;69435;52.670;13.544;2024-02-23T08:05:51;98823.00;;;11.90
21336;BMP180;69435;52.670;13.544;2024-02-23T08:08:37;98828.00;;;11.80
21336;BMP180;69435;52.670;13.544;2024-02-23T08:11:23;98839.00;;;11.90
21336;BMP180;69435;52.670;13.544;2024-02-23T08:14:09;98834.00;;;12.00
21336;BMP180;69435;52.670;13.544;2024-02-23T08:16:55;98823.00;;;12.50
21336;BMP180;69435;52.670;13.544;2024-02-23T08:19:41;98852.00;;;13.10
21336;BMP180;69435;52.670;13.544;2024-02-23T08:22:27;98846.00;;;13.70
21336;BMP180;69435;52.670;13.544;2024-02-23T08:25:13;98853.00;;;14.40
21336;BMP180;69435;52.670;13.544;2024-02-23T08:28:00;98846.00;;;15.10
21336;BMP180;69435;52.670;13.544;2024-02-23T08:30:46;98870.00;;;15.60
21336;BMP180;69435;52.670;13.544;2024-02-23T08:33:32;98870.00;;;15.90
21336;BMP180;69435;52.670;13.544;2024-02-23T08:36:18;98865.00;;;16.00
21336;BMP180;69435;52.670;13.544;2024-02-23T08:39:04;98878.00;;;16.10
21336;BMP180;69435;52.670;13.544;2024-02-23T08:41:50;98880.00;;;15.90
21336;BMP180;69435;52.670;13.544;2024-02-23T08:44:37;98886.00;;;15.60
21336;BMP180;69435;52.670;13.544;2024-02-23T08:47:25;98888.00;;;15.20
21336;BMP180;69435;52.670;13.544;2024-02-23T08:50:13;98885.00;;;14.90
21336;BMP180;69435;52.670;13.544;2024-02-23T08:53:00;98890.00;;;14.70
21336;BMP180;69435;52.670;13.544;2024-02-23T08:55:46;98887.00;;;14.50
21336;BMP180;69435;52.670;13.544;2024-02-23T08:58:32;98891.00;;;14.30
21336;BMP180;69435;52.670;13.544;2024-02-23T09:01:18;98905.00;;;14.20
21336;BMP180;69435;52.670;13.544;2024-02-23T09:04:05;98893.00;;;14.10
21336;BMP180;69435;52.670;13.544;2024-02-23T09:06:51;98909.00;;;14.00
21336;BMP180;69435;52.670;13.544;2024-02-23T09:09:39;98906.00;;;14.00
21336;BMP180;69435;52.670;13.544;2024-02-23T09:12:25;98902.00;;;14.10
21336;BMP180;69435;52.670;13.544;2024-02-23T09:15:11;98927.00;;;14.00
21336;BMP180;69435;52.670;13.544;2024-02-23T09:17:57;98916.00;;;14.20
21336;BMP180;69435;52.670;13.544;2024-02-23T09:20:44;98910.00;;;14.30
21336;BMP180;69435;52.670;13.544;2024-02-23T09:23:30;98935.00;;;14.40
21336;BMP180;69435;52.670;13.544;2024-02-23T09:26:16;98914.00;;;14.40
21336;BMP180;69435;52.670;13.544;2024-02-23T09:29:02;98938.00;;;14.40
21336;BMP180;69435;52.670;13.544;2024-02-23T09:31:48;98941.00;;;14.70
21336;BMP180;69435;52.670;13.544;2024-02-23T09:34:34;98941.00;;;15.00
21336;BMP180;69435;52.670;13.544;2024-02-23T09:37:20;98942.00;;;15.30
21336;BMP180;69435;52.670;13.544;2024-02-23T09:40:07;98929.00;;;15.50
21336;BMP180;69435;52.670;13.544;2024-02-23T09:42:58;98946.00;;;15.60
21336;BMP180;69435;52.670;13.544;2024-02-23T09:45:45;98940.00;;;15.80
21336;BMP180;69435;52.670;13.544;2024-02-23T09:48:32;98954.00;;;15.90
21336;BMP180;69435;52.670;13.544;2024-02-23T09:51:20;98936.00;;;16.00
21336;BMP180;69435;52.670;13.544;2024-02-23T09:54:09;98960.00;;;16.00
21336;BMP180;69435;52.670;13.544;2024-02-23T09:56:55;98950.00;;;15.90
21336;BMP180;69435;52.670;13.544;2024-02-23T09:59:41;98977.00;;;15.80
21336;BMP180;69435;52.670;13.544;2024-02-23T10:02:28;98982.00;;;15.80
21336;BMP180;69435;52.670;13.544;2024-02-23T10:05:16;98985.00;;;15.80
21336;BMP180;69435;52.670;13.544;2024-02-23T10:08:03;98990.00;;;15.90
21336;BMP180;69435;52.670;13.544;2024-02-23T10:10:49;99002.00;;;16.00
21336;BMP180;69435;52.670;13.544;2024-02-23T10:13:38;98983.00;;;15.90
21336;BMP180;69435;52.670;13.544;2024-02-23T10:16:24;98989.00;;;15.90
21336;BMP180;69435;52.670;13.544;2024-02-23T10:19:11;98991.00;;;15.90
21336;BMP180;69435;52.670;13.544;2024-02-23T10:21:57;99005.00;;;16.10
21336;BMP180;69435;52.670;13.544;2024-02-23T10:24:44;98998.00;;;16.20
21336;BMP180;69435;52.670;13.544;2024-02-23T10:27:30;99016.00;;;16.10
21336;BMP180;69435;52.670;13.544;2024-02-23T10:30:16;98995.00;;;15.90
21336;BMP180;69435;52.670;13.544;2024-02-23T10:33:05;98996.00;;;15.80
21336;BMP180;69435;52.670;13.544;2024-02-23T10:35:56;98998.00;;;15.70
21336;BMP180;69435;52.670;13.544;2024-02-23T10:38:45;98976.00;;;15.70
21336;BMP180;69435;52.670;13.544;2024-02-23T10:41:35;99001.00;;;15.60
21336;BMP180;69435;52.670;13.544;2024-02-23T10:44:28;99002.00;;;15.60
21336;BMP180;69435;52.670;13.544;2024-02-23T10:47:14;98990.00;;;15.50
21336;BMP180;69435;52.670;13.544;2024-02-23T10:50:01;99009.00;;;15.50
21336;BMP180;69435;52.670;13.544;2024-02-23T10:52:50;99017.00;;;15.60
21336;BMP180;69435;52.670;13.544;2024-02-23T10:55:37;99005.00;;;15.60
21336;BMP180;69435;52.670;13.544;2024-02-23T10:58:27;98995.00;;;15.40
21336;BMP180;69435;52.670;13.544;2024-02-23T11:01:14;99009.00;;;15.20
21336;BMP180;69435;52.670;13.544;2024-02-23T11:04:03;98997.00;;;15.30
21336;BMP180;69435;52.670;13.544;2024-02-23T11:06:56;99010.00;;;15.30
21336;BMP180;69435;52.670;13.544;2024-02-23T11:09:52;98991.00;;;15.40
21336;BMP180;69435;52.670;13.544;2024-02-23T11:12:39;98995.00;;;15.30
21336;BMP180;69435;52.670;13.544;2024-02-23T11:15:27;98998.00;;;15.40
21336;BMP180;69435;52.670;13.544;2024-02-23T11:18:30;99012.00;;;15.40
21336;BMP180;69435;52.670;13.544;2024-02-23T11:21:19;99004.00;;;15.30
21336;BMP180;69435;52.670;13.544;2024-02-23T11:24:06;99005.00;;;15.30
21336;BMP180;69435;52.670;13.544;2024-02-23T11:27:00;99007.00;;;15.40
21336;BMP180;69435;52.670;13.544;2024-02-23T11:30:06;99018.00;;;15.40
21336;BMP180;69435;52.670;13.544;2024-02-23T11:32:59;99026.00;;;15.30
21336;BMP180;69435;52.670;13.544;2024-02-23T11:35:48;99024.00;;;15.20
21336;BMP180;69435;52.670;13.544;2024-02-23T11:38:39;99014.00;;;15.10
21336;BMP180;69435;52.670;13.544;2024-02-23T11:41:28;99032.00;;;15.10
21336;BMP180;69435;52.670;13.544;2024-02-23T11:44:14;99035.00;;;15.00
21336;BMP180;69435;52.670;13.544;2024-02-23T11:47:03;99015.00;;;15.00
21336;BMP180;69435;52.670;13.544;2024-02-23T11:49:49;99026.00;;;15.00
21336;BMP180;69435;52.670;13.544;2024-02-23T11:52:38;99018.00;;;15.10
21336;BMP180;69435;52.670;13.544;2024-02-23T11:55:26;99016.00;;;15.20
21336;BMP180;69435;52.670;13.544;2024-02-23T11:58:12;99022.00;;;15.30
21336;BMP180;69435;52.670;13.544;2024-02-23T12:01:00;99026.00;;;15.40
21336;BMP180;69435;52.670;13.544;2024-02-23T12:03:48;99034.00;;;15.40
21336;BMP180;69435;52.670;13.544;2024-02-23T12:06:34;99041.00;;;15.40
21336;BMP180;69435;52.670;13.544;2024-02-23T12:09:20;99040.00;;;15.30
21336;BMP180;69435;52.670;13.544;2024-02-23T12:12:07;99010.00;;;15.20
21336;BMP180;69435;52.670;13.544;2024-02-23T12:14:55;99033.00;;;15.10
21336;BMP180;69435;52.670;13.544;2024-02-23T12:17:48;99063.00;;;15.10
21336;BMP180;69435;52.670;13.544;2024-02-23T12:20:35;99062.00;;;15.10
21336;BMP180;69435;52.670;13.544;2024-02-23T12:23:21;99054.00;;;15.20
21336;BMP180;69435;52.670;13.544;2024-02-23T12:26:09;99032.00;;;15.20
21336;BMP180;69435;52.670;13.544;2024-02-23T12:29:03;99052.00;;;15.20
21336;BMP180;69435;52.670;13.544;2024-02-23T12:31:50;99050.00;;;15.20
21336;BMP180;69435;52.670;13.544;2024-02-23T12:34:37;99056.00;;;15.20
21336;BMP180;69435;52.670;13.544;2024-02-23T12:37:23;99063.00;;;15.20
21336;BMP180;69435;52.670;13.544;2024-02-23T12:40:09;99047.00;;;15.10
21336;BMP180;69435;52.670;13.544;2024-02-23T12:42:56;99070.00;;;15.10
21336;BMP180;69435;52.670;13.544;2024-02-23T12:45:42;99057.00;;;15.00
21336;BMP180;69435;52.670;13.544;2024-02-23T12:48:30;99070.00;;;15.00
21336;BMP180;69435;52.670;13.544;2024-02-23T12:51:17;99058.00;;;14.90
21336;BMP180;69435;52.670;13.544;2024-02-23T12:54:03;99080.00;;;14.80
21336;BMP180;69435;52.670;13.544;2024-02-23T12:56:50;99082.00;;;14.80
21336;BMP180;69435;52.670;13.544;2024-02-23T12:59:36;99068.00;;;14.70
21336;BMP180;69435;52.670;13.544;2024-02-23T13:02:22;99091.00;;;14.60
21336;BMP180;69435;52.670;13.544;2024-02-23T13:05:08;99081.00;;;14.40
21336;BMP180;69435;52.670;13.544;2024-02-23T13:07:54;99097.00;;;14.30
21336;BMP180;69435;52.670;13.544;2024-02-23T13:10:40;99100.00;;;14.30
21336;BMP180;69435;52.670;13.544;2024-02-23T13:13:26;99076.00;;;14.20
21336;BMP180;69435;52.670;13.544;2024-02-23T13:16:12;99096.00;;;14.30
21336;BMP180;69435;52.670;13.544;2024-02-23T13:19:00;99103.00;;;14.20
21336;BMP180;69435;52.670;13.544;2024-02-23T13:21:46;99097.00;;;14.10
21336;BMP180;69435;52.670;13.544;2024-02-23T13:24:32;99088.00;;;14.20
21336;BMP180;69435;52.670;13.544;2024-02-23T13:27:18;99113.00;;;14.20
21336;BMP180;69435;52.670;13.544;2024-02-23T13:30:05;99110.00;;;14.20
21336;BMP180;69435;52.670;13.544;2024-02-23T13:32:53;99087.00;;;14.10
21336;BMP180;69435;52.670;13.544;2024-02-23T13:35:39;99098.00;;;14.10
21336;BMP180;69435;52.670;13.544;2024-02-23T13:38:25;99108.00;;;14.00
21336;BMP180;69435;52.670;13.544;2024-02-23T13:41:12;99102.00;;;14.00
21336;BMP180;69435;52.670;13.544;2024-02-23T13:43:58;99112.00;;;13.90
21336;BMP180;69435;52.670;13.544;2024-02-23T13:46:43;99115.00;;;13.90
21336;BMP180;69435;52.670;13.544;2024-02-23T13:49:29;99104.00;;;13.80
21336;BMP180;69435;52.670;13.544;2024-02-23T13:52:16;99112.00;;;13.80
21336;BMP180;69435;52.670;13.544;2024-02-23T13:55:02;99091.00;;;13.80
21336;BMP180;69435;52.670;13.544;2024-02-23T13:57:49;99088.00;;;13.80
21336;BMP180;69435;52.670;13.544;2024-02-23T14:00:35;99095.00;;;13.70
21336;BMP180;69435;52.670;13.544;2024-02-23T14:03:21;99106.00;;;13.60
21336;BMP180;69435;52.670;13.544;2024-02-23T14:06:09;99084.00;;;13.60
21336;BMP180;69435;52.670;13.544;2024-02-23T14:08:55;99111.00;;;13.70
21336;BMP180;69435;52.670;13.544;2024-02-23T14:11:41;99104.00;;;13.60
21336;BMP180;69435;52.670;13.544;2024-02-23T14:14:27;99104.00;;;13.60
21336;BMP180;69435;52.670;13.544;2024-02-23T14:17:13;99104.00;;;13.50
21336;BMP180;69435;52.670;13.544;2024-02-23T14:20:00;99101.00;;;13.40
21336;BMP180;69435;52.670;13.544;2024-02-23T14:22:46;99103.00;;;13.40
21336;BMP180;69435;52.670;13.544;2024-02-23T14:25:32;99103.00;;;13.30
21336;BMP180;69435;52.670;13.544;2024-02-23T14:28:18;99104.00;;;13.30
21336;BMP180;69435;52.670;13.544;2024-02-23T14:31:04;99112.00;;;13.30
21336;BMP180;69435;52.670;13.544;2024-02-23T14:33:51;99109.00;;;13.20
21336;BMP180;69435;52.670;13.544;2024-02-23T14:36:37;99114.00;;;13.10
21336;BMP180;69435;52.670;13.544;2024-02-23T14:39:23;99115.00;;;13.20
21336;BMP180;69435;52.670;13.544;2024-02-23T14:42:09;99103.00;;;13.20
21336;BMP180;69435;52.670;13.544;2024-02-23T14:44:55;99127.00;;;13.20
21336;BMP180;69435;52.670;13.544;2024-02-23T14:47:42;99109.00;;;13.20
21336;BMP180;69435;52.670;13.544;2024-02-23T14:50:30;99123.00;;;13.20
21336;BMP180;69435;52.670;13.544;2024-02-23T14:53:16;99128.00;;;13.20
21336;BMP180;69435;52.670;13.544;2024-02-23T14:56:03;99136.00;;;13.20
21336;BMP180;69435;52.670;13.544;2024-02-23T14:58:49;99147.00;;;13.20
21336;BMP180;69435;52.670;13.544;2024-02-23T15:01:39;99135.00;;;13.10
21336;BMP180;69435;52.670;13.544;2024-02-23T15:04:28;99147.00;;;12.90
21336;BMP180;69435;52.670;13.544;2024-02-23T15:07:14;99158.00;;;12.80
21336;BMP180;69435;52.670;13.544;2024-02-23T15:10:04;99150.00;;;12.80
21336;BMP180;69435;52.670;13.544;2024-02-23T15:12:53;99153.00;;;12.70
21336;BMP180;69435;52.670;13.544;2024-02-23T15:15:40;99154.00;;;12.70
21336;BMP180;69435;52.670;13.544;2024-02-23T15:18:28;99102.00;;;12.60
21336;BMP180;69435;52.670;13.544;2024-02-23T15:21:14;99161.00;;;12.60
21336;BMP180;69435;52.670;13.544;2024-02-23T15:24:01;99162.00;;;12.60
21336;BMP180;69435;52.670;13.544;2024-02-23T15:26:47;99148.00;;;12.60
21336;BMP180;69435;52.670;13.544;2024-02-23T15:29:34;99176.00;;;12.60
21336;BMP180;69435;52.670;13.544;2024-02-23T15:32:20;99186.00;;;12.60
21336;BMP180;69435;52.670;13.544;2024-02-23T15:35:06;99174.00;;;12.60
21336;BMP180;69435;52.670;13.544;2024-02-23T15:37:53;99179.00;;;12.50
21336;BMP180;69435;52.670;13.544;2024-02-23T15:40:39;99185.00;;;12.50
21336;BMP180;69435;52.670;13.544;2024-02-23T15:43:25;99174.00;;;12.40
21336;BMP180;69435;52.670;13.544;2024-02-23T15:46:14;99179.00;;;12.50